Terminal Aerodrome Forecast
Issued by NWS Detroit/Pontiac, MI

Home | Current Version | Previous Version | Text Only | Print | Product List | Glossary On
Versions: 1 2 3 4 5 6 7 8 9 10 11 12 13 14 15 16 17 18 19 20 21 22 23 24
000
FTUS43 KDTX 041120
TAFFNT
TAF
KFNT 041120Z 0412/0512 18004KT 4SM BR BKN005 BKN020
      TEMPO 0412/0414 18004KT 2SM BR OVC005
     FM041400 19005KT P6SM BKN025
     FM041800 19008KT P6SM BKN035
     FM050300 17004KT P6SM BKN040
     FM050800 VRB02KT 4SM BR BKN040=

USA.gov is the U.S. government's official web portal to all federal, state and local government web resources and services.